sensor_id;sensor_type;location;lat;lon;timestamp;P1;durP1;ratioP1;P2;durP2;ratioP2
32824;SDS011;51060;42.640;24.356;2023-05-07T00:01:24;24.42;;;21.75;;
32824;SDS011;51060;42.640;24.356;2023-05-07T00:03:49;28.85;;;25.58;;
32824;SDS011;51060;42.640;24.356;2023-05-07T00:06:15;22.92;;;20.60;;
32824;SDS011;51060;42.640;24.356;2023-05-07T00:08:41;26.38;;;23.23;;
32824;SDS011;51060;42.640;24.356;2023-05-07T00:11:06;21.85;;;19.52;;
32824;SDS011;51060;42.640;24.356;2023-05-07T00:13:32;34.05;;;29.50;;
32824;SDS011;51060;42.640;24.356;2023-05-07T00:16:01;31.75;;;28.33;;
32824;SDS011;51060;42.640;24.356;2023-05-07T00:18:29;25.65;;;23.00;;
32824;SDS011;51060;42.640;24.356;2023-05-07T00:20:55;26.20;;;23.45;;
32824;SDS011;51060;42.640;24.356;2023-05-07T00:23:21;25.35;;;22.75;;
32824;SDS011;51060;42.640;24.356;2023-05-07T00:25:47;22.10;;;19.80;;
32824;SDS011;51060;42.640;24.356;2023-05-07T00:28:13;24.77;;;21.92;;
32824;SDS011;51060;42.640;24.356;2023-05-07T00:30:38;23.75;;;21.30;;
32824;SDS011;51060;42.640;24.356;2023-05-07T00:33:04;24.35;;;21.85;;
32824;SDS011;51060;42.640;24.356;2023-05-07T00:35:30;25.40;;;22.73;;
32824;SDS011;51060;42.640;24.356;2023-05-07T00:37:56;24.83;;;21.98;;
32824;SDS011;51060;42.640;24.356;2023-05-07T00:40:21;27.00;;;24.20;;
32824;SDS011;51060;42.640;24.356;2023-05-07T00:42:47;28.33;;;25.20;;
32824;SDS011;51060;42.640;24.356;2023-05-07T00:45:14;28.08;;;24.83;;
32824;SDS011;51060;42.640;24.356;2023-05-07T00:47:40;26.48;;;23.70;;
32824;SDS011;51060;42.640;24.356;2023-05-07T00:50:06;29.58;;;26.35;;
32824;SDS011;51060;42.640;24.356;2023-05-07T00:52:33;34.95;;;31.25;;
32824;SDS011;51060;42.640;24.356;2023-05-07T00:55:00;29.05;;;25.88;;
32824;SDS011;51060;42.640;24.356;2023-05-07T00:57:32;28.77;;;25.65;;
32824;SDS011;51060;42.640;24.356;2023-05-07T00:59:58;29.40;;;26.30;;
32824;SDS011;51060;42.640;24.356;2023-05-07T01:02:24;27.05;;;24.15;;
32824;SDS011;51060;42.640;24.356;2023-05-07T01:04:50;25.00;;;22.33;;
32824;SDS011;51060;42.640;24.356;2023-05-07T01:07:15;21.90;;;19.50;;
32824;SDS011;51060;42.640;24.356;2023-05-07T01:09:41;22.77;;;19.67;;
32824;SDS011;51060;42.640;24.356;2023-05-07T01:12:07;24.42;;;20.33;;
32824;SDS011;51060;42.640;24.356;2023-05-07T01:14:33;22.70;;;20.38;;
32824;SDS011;51060;42.640;24.356;2023-05-07T01:16:59;21.88;;;19.50;;
32824;SDS011;51060;42.640;24.356;2023-05-07T01:19:25;21.63;;;19.25;;
32824;SDS011;51060;42.640;24.356;2023-05-07T01:21:52;23.17;;;20.02;;
32824;SDS011;51060;42.640;24.356;2023-05-07T01:24:23;24.27;;;21.67;;
32824;SDS011;51060;42.640;24.356;2023-05-07T01:26:48;22.13;;;19.83;;
32824;SDS011;51060;42.640;24.356;2023-05-07T01:29:14;23.40;;;19.85;;
32824;SDS011;51060;42.640;24.356;2023-05-07T01:31:40;23.55;;;20.10;;
32824;SDS011;51060;42.640;24.356;2023-05-07T01:34:07;20.13;;;18.13;;
32824;SDS011;51060;42.640;24.356;2023-05-07T01:36:33;20.35;;;18.02;;
32824;SDS011;51060;42.640;24.356;2023-05-07T01:39:00;22.55;;;20.30;;
32824;SDS011;51060;42.640;24.356;2023-05-07T01:41:26;24.17;;;20.55;;
32824;SDS011;51060;42.640;24.356;2023-05-07T01:43:52;20.48;;;18.38;;
32824;SDS011;51060;42.640;24.356;2023-05-07T01:46:18;20.05;;;18.05;;
32824;SDS011;51060;42.640;24.356;2023-05-07T01:48:45;18.83;;;17.02;;
32824;SDS011;51060;42.640;24.356;2023-05-07T01:51:11;22.85;;;19.35;;
32824;SDS011;51060;42.640;24.356;2023-05-07T01:53:38;18.13;;;16.17;;
32824;SDS011;51060;42.640;24.356;2023-05-07T01:56:04;17.33;;;15.50;;
32824;SDS011;51060;42.640;24.356;2023-05-07T01:58:30;16.02;;;14.43;;
32824;SDS011;51060;42.640;24.356;2023-05-07T02:00:56;15.82;;;14.27;;
32824;SDS011;51060;42.640;24.356;2023-05-07T02:03:21;16.13;;;14.43;;
32824;SDS011;51060;42.640;24.356;2023-05-07T02:05:47;16.20;;;14.60;;
32824;SDS011;51060;42.640;24.356;2023-05-07T02:08:13;16.35;;;14.40;;
32824;SDS011;51060;42.640;24.356;2023-05-07T02:10:38;16.15;;;14.18;;
32824;SDS011;51060;42.640;24.356;2023-05-07T02:13:04;15.82;;;13.93;;
32824;SDS011;51060;42.640;24.356;2023-05-07T02:15:30;19.30;;;17.23;;
32824;SDS011;51060;42.640;24.356;2023-05-07T02:17:59;16.60;;;14.90;;
32824;SDS011;51060;42.640;24.356;2023-05-07T02:20:25;17.23;;;15.38;;
32824;SDS011;51060;42.640;24.356;2023-05-07T02:22:51;14.75;;;13.30;;
32824;SDS011;51060;42.640;24.356;2023-05-07T02:25:16;16.65;;;14.80;;
32824;SDS011;51060;42.640;24.356;2023-05-07T02:27:42;16.40;;;14.18;;
32824;SDS011;51060;42.640;24.356;2023-05-07T02:30:08;15.77;;;14.07;;
32824;SDS011;51060;42.640;24.356;2023-05-07T02:32:33;15.60;;;13.57;;
32824;SDS011;51060;42.640;24.356;2023-05-07T02:34:59;14.07;;;12.70;;
32824;SDS011;51060;42.640;24.356;2023-05-07T02:37:24;15.13;;;13.63;;
32824;SDS011;51060;42.640;24.356;2023-05-07T02:39:50;14.93;;;13.30;;
32824;SDS011;51060;42.640;24.356;2023-05-07T02:42:16;14.15;;;12.65;;
32824;SDS011;51060;42.640;24.356;2023-05-07T02:44:41;13.98;;;12.65;;
32824;SDS011;51060;42.640;24.356;2023-05-07T02:47:07;14.38;;;12.88;;
32824;SDS011;51060;42.640;24.356;2023-05-07T02:49:33;15.00;;;13.00;;
32824;SDS011;51060;42.640;24.356;2023-05-07T02:51:59;17.00;;;12.75;;
32824;SDS011;51060;42.640;24.356;2023-05-07T02:54:24;14.13;;;12.73;;
32824;SDS011;51060;42.640;24.356;2023-05-07T02:56:50;13.60;;;12.23;;
32824;SDS011;51060;42.640;24.356;2023-05-07T02:59:16;14.95;;;12.95;;
32824;SDS011;51060;42.640;24.356;2023-05-07T03:01:41;13.50;;;12.10;;
32824;SDS011;51060;42.640;24.356;2023-05-07T03:04:09;14.05;;;12.57;;
32824;SDS011;51060;42.640;24.356;2023-05-07T03:06:35;13.85;;;12.40;;
32824;SDS011;51060;42.640;24.356;2023-05-07T03:09:01;12.90;;;11.60;;
32824;SDS011;51060;42.640;24.356;2023-05-07T03:11:27;12.50;;;11.23;;
32824;SDS011;51060;42.640;24.356;2023-05-07T03:13:53;12.90;;;11.60;;
32824;SDS011;51060;42.640;24.356;2023-05-07T03:16:18;13.20;;;11.43;;
32824;SDS011;51060;42.640;24.356;2023-05-07T03:18:44;12.27;;;11.07;;
32824;SDS011;51060;42.640;24.356;2023-05-07T03:21:09;13.25;;;11.18;;
32824;SDS011;51060;42.640;24.356;2023-05-07T03:23:35;13.02;;;11.73;;
32824;SDS011;51060;42.640;24.356;2023-05-07T03:26:00;12.40;;;11.20;;
32824;SDS011;51060;42.640;24.356;2023-05-07T03:28:26;11.63;;;10.43;;
32824;SDS011;51060;42.640;24.356;2023-05-07T03:30:52;12.73;;;11.53;;
32824;SDS011;51060;42.640;24.356;2023-05-07T03:33:17;12.70;;;11.40;;
32824;SDS011;51060;42.640;24.356;2023-05-07T03:35:43;13.30;;;12.00;;
32824;SDS011;51060;42.640;24.356;2023-05-07T03:38:08;12.17;;;10.97;;
32824;SDS011;51060;42.640;24.356;2023-05-07T03:40:34;12.00;;;10.70;;
32824;SDS011;51060;42.640;24.356;2023-05-07T03:43:00;12.30;;;11.10;;
32824;SDS011;51060;42.640;24.356;2023-05-07T03:45:26;13.13;;;11.80;;
32824;SDS011;51060;42.640;24.356;2023-05-07T03:47:51;12.53;;;11.23;;
32824;SDS011;51060;42.640;24.356;2023-05-07T03:50:17;13.47;;;12.17;;
32824;SDS011;51060;42.640;24.356;2023-05-07T03:52:42;13.27;;;11.87;;
32824;SDS011;51060;42.640;24.356;2023-05-07T03:55:08;15.50;;;13.67;;
32824;SDS011;51060;42.640;24.356;2023-05-07T03:57:34;13.37;;;11.97;;
32824;SDS011;51060;42.640;24.356;2023-05-07T04:00:00;14.77;;;12.53;;
32824;SDS011;51060;42.640;24.356;2023-05-07T04:02:25;14.80;;;13.30;;
32824;SDS011;51060;42.640;24.356;2023-05-07T04:04:51;16.17;;;14.47;;
32824;SDS011;51060;42.640;24.356;2023-05-07T04:07:17;15.83;;;14.10;;
32824;SDS011;51060;42.640;24.356;2023-05-07T04:09:43;15.43;;;13.77;;
32824;SDS011;51060;42.640;24.356;2023-05-07T04:12:08;14.50;;;13.00;;
32824;SDS011;51060;42.640;24.356;2023-05-07T04:14:34;14.03;;;12.63;;
32824;SDS011;51060;42.640;24.356;2023-05-07T04:16:59;15.87;;;14.27;;
32824;SDS011;51060;42.640;24.356;2023-05-07T04:19:25;15.33;;;13.47;;
32824;SDS011;51060;42.640;24.356;2023-05-07T04:21:51;17.33;;;15.30;;
32824;SDS011;51060;42.640;24.356;2023-05-07T04:24:16;24.20;;;19.03;;
32824;SDS011;51060;42.640;24.356;2023-05-07T04:26:42;25.23;;;21.53;;
32824;SDS011;51060;42.640;24.356;2023-05-07T04:29:07;24.00;;;21.40;;
32824;SDS011;51060;42.640;24.356;2023-05-07T04:31:33;25.40;;;22.47;;
32824;SDS011;51060;42.640;24.356;2023-05-07T04:33:59;22.17;;;19.87;;
32824;SDS011;51060;42.640;24.356;2023-05-07T04:36:25;21.53;;;19.23;;
32824;SDS011;51060;42.640;24.356;2023-05-07T04:38:52;27.07;;;23.73;;
32824;SDS011;51060;42.640;24.356;2023-05-07T04:41:18;22.03;;;19.70;;
32824;SDS011;51060;42.640;24.356;2023-05-07T04:43:44;22.80;;;20.50;;
32824;SDS011;51060;42.640;24.356;2023-05-07T04:46:10;20.73;;;18.53;;
32824;SDS011;51060;42.640;24.356;2023-05-07T04:48:36;24.43;;;22.03;;
32824;SDS011;51060;42.640;24.356;2023-05-07T04:51:01;23.90;;;21.53;;
32824;SDS011;51060;42.640;24.356;2023-05-07T04:53:27;21.70;;;19.42;;
32824;SDS011;51060;42.640;24.356;2023-05-07T04:55:56;22.17;;;19.60;;
32824;SDS011;51060;42.640;24.356;2023-05-07T04:58:22;20.67;;;18.33;;
32824;SDS011;51060;42.640;24.356;2023-05-07T05:00:48;23.55;;;20.90;;
32824;SDS011;51060;42.640;24.356;2023-05-07T05:03:13;24.00;;;19.77;;
32824;SDS011;51060;42.640;24.356;2023-05-07T05:05:39;23.53;;;21.00;;
32824;SDS011;51060;42.640;24.356;2023-05-07T05:08:04;26.83;;;22.60;;
32824;SDS011;51060;42.640;24.356;2023-05-07T05:10:30;20.23;;;16.58;;
32824;SDS011;51060;42.640;24.356;2023-05-07T05:12:56;17.67;;;15.43;;
32824;SDS011;51060;42.640;24.356;2023-05-07T05:15:21;15.52;;;13.93;;
32824;SDS011;51060;42.640;24.356;2023-05-07T05:17:47;16.35;;;14.32;;
32824;SDS011;51060;42.640;24.356;2023-05-07T05:20:12;16.25;;;14.20;;
32824;SDS011;51060;42.640;24.356;2023-05-07T05:22:41;15.55;;;13.55;;
32824;SDS011;51060;42.640;24.356;2023-05-07T05:25:07;14.90;;;12.77;;
32824;SDS011;51060;42.640;24.356;2023-05-07T05:27:33;14.57;;;13.13;;
32824;SDS011;51060;42.640;24.356;2023-05-07T05:29:59;13.88;;;12.45;;
32824;SDS011;51060;42.640;24.356;2023-05-07T05:32:25;16.92;;;14.88;;
32824;SDS011;51060;42.640;24.356;2023-05-07T05:34:50;15.35;;;13.40;;
32824;SDS011;51060;42.640;24.356;2023-05-07T05:37:16;16.73;;;14.00;;
32824;SDS011;51060;42.640;24.356;2023-05-07T05:39:42;14.07;;;12.68;;
32824;SDS011;51060;42.640;24.356;2023-05-07T05:42:07;12.68;;;11.48;;
32824;SDS011;51060;42.640;24.356;2023-05-07T05:44:33;14.75;;;13.20;;
32824;SDS011;51060;42.640;24.356;2023-05-07T05:46:58;15.18;;;13.68;;
32824;SDS011;51060;42.640;24.356;2023-05-07T05:49:24;16.27;;;14.52;;
32824;SDS011;51060;42.640;24.356;2023-05-07T05:51:50;14.13;;;12.77;;
32824;SDS011;51060;42.640;24.356;2023-05-07T05:54:16;13.20;;;11.90;;
32824;SDS011;51060;42.640;24.356;2023-05-07T05:56:42;12.68;;;11.25;;
32824;SDS011;51060;42.640;24.356;2023-05-07T05:59:07;11.07;;;9.98;;
32824;SDS011;51060;42.640;24.356;2023-05-07T06:01:33;10.27;;;9.27;;
32824;SDS011;51060;42.640;24.356;2023-05-07T06:03:59;10.80;;;9.70;;
32824;SDS011;51060;42.640;24.356;2023-05-07T06:06:25;11.35;;;10.35;;
32824;SDS011;51060;42.640;24.356;2023-05-07T06:08:51;10.55;;;9.48;;
32824;SDS011;51060;42.640;24.356;2023-05-07T06:11:16;13.57;;;9.30;;
32824;SDS011;51060;42.640;24.356;2023-05-07T06:13:42;9.57;;;8.57;;
32824;SDS011;51060;42.640;24.356;2023-05-07T06:16:08;11.60;;;10.50;;
32824;SDS011;51060;42.640;24.356;2023-05-07T06:18:33;11.50;;;10.50;;
32824;SDS011;51060;42.640;24.356;2023-05-07T06:21:01;10.57;;;9.50;;
32824;SDS011;51060;42.640;24.356;2023-05-07T06:23:27;11.30;;;10.07;;
32824;SDS011;51060;42.640;24.356;2023-05-07T06:25:52;9.55;;;8.18;;
32824;SDS011;51060;42.640;24.356;2023-05-07T06:28:18;9.40;;;8.32;;
32824;SDS011;51060;42.640;24.356;2023-05-07T06:30:44;9.73;;;8.07;;
32824;SDS011;51060;42.640;24.356;2023-05-07T06:33:10;9.25;;;8.13;;
32824;SDS011;51060;42.640;24.356;2023-05-07T06:35:35;10.55;;;9.05;;
32824;SDS011;51060;42.640;24.356;2023-05-07T06:38:01;9.45;;;8.55;;
32824;SDS011;51060;42.640;24.356;2023-05-07T06:40:27;7.85;;;7.22;;
32824;SDS011;51060;42.640;24.356;2023-05-07T06:42:52;5.72;;;5.22;;
32824;SDS011;51060;42.640;24.356;2023-05-07T06:45:19;5.72;;;5.20;;
32824;SDS011;51060;42.640;24.356;2023-05-07T06:47:45;7.05;;;6.45;;
32824;SDS011;51060;42.640;24.356;2023-05-07T06:50:10;11.57;;;10.18;;
32824;SDS011;51060;42.640;24.356;2023-05-07T06:52:36;7.68;;;6.50;;
32824;SDS011;51060;42.640;24.356;2023-05-07T06:55:02;5.97;;;5.15;;
32824;SDS011;51060;42.640;24.356;2023-05-07T06:57:28;4.85;;;4.35;;
32824;SDS011;51060;42.640;24.356;2023-05-07T06:59:53;8.63;;;6.68;;
32824;SDS011;51060;42.640;24.356;2023-05-07T07:02:19;4.70;;;4.13;;
32824;SDS011;51060;42.640;24.356;2023-05-07T07:04:45;4.10;;;3.38;;
32824;SDS011;51060;42.640;24.356;2023-05-07T07:07:10;4.13;;;3.20;;
32824;SDS011;51060;42.640;24.356;2023-05-07T07:09:36;4.50;;;4.07;;
32824;SDS011;51060;42.640;24.356;2023-05-07T07:12:02;4.38;;;3.97;;
32824;SDS011;51060;42.640;24.356;2023-05-07T07:14:27;8.00;;;5.82;;
32824;SDS011;51060;42.640;24.356;2023-05-07T07:16:53;3.30;;;3.03;;
32824;SDS011;51060;42.640;24.356;2023-05-07T07:19:19;3.55;;;2.83;;
32824;SDS011;51060;42.640;24.356;2023-05-07T07:21:45;3.60;;;3.30;;
32824;SDS011;51060;42.640;24.356;2023-05-07T07:24:11;5.47;;;3.85;;
32824;SDS011;51060;42.640;24.356;2023-05-07T07:26:37;4.30;;;3.38;;
32824;SDS011;51060;42.640;24.356;2023-05-07T07:29:05;3.70;;;2.85;;
32824;SDS011;51060;42.640;24.356;2023-05-07T07:31:32;4.90;;;3.10;;
32824;SDS011;51060;42.640;24.356;2023-05-07T07:33:57;4.35;;;3.83;;
32824;SDS011;51060;42.640;24.356;2023-05-07T07:36:23;3.85;;;3.50;;
32824;SDS011;51060;42.640;24.356;2023-05-07T07:38:49;5.25;;;3.35;;
32824;SDS011;51060;42.640;24.356;2023-05-07T07:41:14;4.05;;;3.45;;
32824;SDS011;51060;42.640;24.356;2023-05-07T07:43:40;5.07;;;3.22;;
32824;SDS011;51060;42.640;24.356;2023-05-07T07:46:05;4.90;;;3.50;;
32824;SDS011;51060;42.640;24.356;2023-05-07T07:48:31;4.90;;;2.75;;
32824;SDS011;51060;42.640;24.356;2023-05-07T07:50:57;4.90;;;3.97;;
32824;SDS011;51060;42.640;24.356;2023-05-07T07:53:22;5.18;;;3.80;;
32824;SDS011;51060;42.640;24.356;2023-05-07T07:55:48;5.07;;;4.20;;
32824;SDS011;51060;42.640;24.356;2023-05-07T07:58:14;6.20;;;3.20;;
32824;SDS011;51060;42.640;24.356;2023-05-07T08:00:39;19.02;;;15.48;;
32824;SDS011;51060;42.640;24.356;2023-05-07T08:03:05;8.50;;;7.40;;
32824;SDS011;51060;42.640;24.356;2023-05-07T08:05:32;10.02;;;8.50;;
32824;SDS011;51060;42.640;24.356;2023-05-07T08:07:57;6.93;;;5.93;;
32824;SDS011;51060;42.640;24.356;2023-05-07T08:10:23;7.20;;;4.90;;
32824;SDS011;51060;42.640;24.356;2023-05-07T08:12:49;6.90;;;5.05;;
32824;SDS011;51060;42.640;24.356;2023-05-07T08:15:15;6.65;;;5.22;;
32824;SDS011;51060;42.640;24.356;2023-05-07T08:17:41;5.20;;;4.70;;
32824;SDS011;51060;42.640;24.356;2023-05-07T08:20:06;7.28;;;5.32;;
32824;SDS011;51060;42.640;24.356;2023-05-07T08:22:33;6.55;;;5.88;;
32824;SDS011;51060;42.640;24.356;2023-05-07T08:25:00;5.93;;;5.32;;
32824;SDS011;51060;42.640;24.356;2023-05-07T08:27:25;7.07;;;6.38;;
32824;SDS011;51060;42.640;24.356;2023-05-07T08:29:51;9.88;;;5.38;;
32824;SDS011;51060;42.640;24.356;2023-05-07T08:32:17;5.75;;;4.70;;
32824;SDS011;51060;42.640;24.356;2023-05-07T08:34:42;7.22;;;5.50;;
32824;SDS011;51060;42.640;24.356;2023-05-07T08:37:08;7.18;;;6.20;;
32824;SDS011;51060;42.640;24.356;2023-05-07T08:39:34;6.13;;;5.53;;
32824;SDS011;51060;42.640;24.356;2023-05-07T08:42:00;6.65;;;5.97;;
32824;SDS011;51060;42.640;24.356;2023-05-07T08:44:27;7.32;;;6.22;;
32824;SDS011;51060;42.640;24.356;2023-05-07T08:46:53;6.45;;;5.85;;
32824;SDS011;51060;42.640;24.356;2023-05-07T08:49:21;6.85;;;6.15;;
32824;SDS011;51060;42.640;24.356;2023-05-07T08:51:47;6.80;;;6.07;;
32824;SDS011;51060;42.640;24.356;2023-05-07T08:54:15;20.52;;;12.85;;
32824;SDS011;51060;42.640;24.356;2023-05-07T08:56:41;8.35;;;6.20;;
32824;SDS011;51060;42.640;24.356;2023-05-07T08:59:07;7.00;;;6.30;;
32824;SDS011;51060;42.640;24.356;2023-05-07T09:01:33;7.30;;;6.60;;
32824;SDS011;51060;42.640;24.356;2023-05-07T09:04:00;7.97;;;6.00;;
32824;SDS011;51060;42.640;24.356;2023-05-07T09:06:26;6.63;;;5.90;;
32824;SDS011;51060;42.640;24.356;2023-05-07T09:08:52;9.68;;;7.35;;
32824;SDS011;51060;42.640;24.356;2023-05-07T09:11:22;7.70;;;6.90;;
32824;SDS011;51060;42.640;24.356;2023-05-07T09:13:49;7.55;;;6.82;;
32824;SDS011;51060;42.640;24.356;2023-05-07T09:16:19;10.27;;;8.52;;
32824;SDS011;51060;42.640;24.356;2023-05-07T09:18:46;13.32;;;10.80;;
32824;SDS011;51060;42.640;24.356;2023-05-07T09:21:18;8.40;;;7.40;;
32824;SDS011;51060;42.640;24.356;2023-05-07T09:23:44;12.60;;;9.63;;
32824;SDS011;51060;42.640;24.356;2023-05-07T09:26:10;13.45;;;9.90;;
32824;SDS011;51060;42.640;24.356;2023-05-07T09:28:43;8.07;;;6.38;;
32824;SDS011;51060;42.640;24.356;2023-05-07T09:31:10;9.90;;;8.40;;
32824;SDS011;51060;42.640;24.356;2023-05-07T09:33:36;7.60;;;6.90;;
32824;SDS011;51060;42.640;24.356;2023-05-07T09:36:02;11.07;;;7.45;;
32824;SDS011;51060;42.640;24.356;2023-05-07T09:38:30;10.77;;;6.95;;
32824;SDS011;51060;42.640;24.356;2023-05-07T09:41:07;8.13;;;7.10;;
32824;SDS011;51060;42.640;24.356;2023-05-07T09:43:34;9.95;;;8.07;;
32824;SDS011;51060;42.640;24.356;2023-05-07T09:46:02;10.45;;;7.20;;
32824;SDS011;51060;42.640;24.356;2023-05-07T09:48:32;7.85;;;7.05;;
32824;SDS011;51060;42.640;24.356;2023-05-07T09:51:02;8.50;;;7.43;;
32824;SDS011;51060;42.640;24.356;2023-05-07T09:53:35;6.68;;;6.07;;
32824;SDS011;51060;42.640;24.356;2023-05-07T09:56:02;7.57;;;6.78;;
32824;SDS011;51060;42.640;24.356;2023-05-07T09:58:27;7.35;;;6.57;;
32824;SDS011;51060;42.640;24.356;2023-05-07T10:00:55;9.10;;;7.75;;
32824;SDS011;51060;42.640;24.356;2023-05-07T10:03:22;9.25;;;7.20;;
32824;SDS011;51060;42.640;24.356;2023-05-07T10:05:47;10.15;;;7.03;;
32824;SDS011;51060;42.640;24.356;2023-05-07T10:08:14;10.60;;;7.45;;
32824;SDS011;51060;42.640;24.356;2023-05-07T10:10:42;8.63;;;7.75;;
32824;SDS011;51060;42.640;24.356;2023-05-07T10:13:07;11.43;;;9.60;;
32824;SDS011;51060;42.640;24.356;2023-05-07T10:15:36;8.85;;;7.22;;
32824;SDS011;51060;42.640;24.356;2023-05-07T10:18:02;18.38;;;13.07;;
32824;SDS011;51060;42.640;24.356;2023-05-07T10:20:28;15.07;;;9.02;;
32824;SDS011;51060;42.640;24.356;2023-05-07T10:22:55;10.93;;;8.45;;
32824;SDS011;51060;42.640;24.356;2023-05-07T10:25:25;7.50;;;6.72;;
32824;SDS011;51060;42.640;24.356;2023-05-07T10:27:54;6.88;;;6.18;;
32824;SDS011;51060;42.640;24.356;2023-05-07T10:33:02;8.68;;;7.80;;
32824;SDS011;51060;42.640;24.356;2023-05-07T10:35:31;8.20;;;7.07;;
32824;SDS011;51060;42.640;24.356;2023-05-07T10:38:02;8.20;;;7.38;;
32824;SDS011;51060;42.640;24.356;2023-05-07T10:40:29;11.93;;;8.10;;
32824;SDS011;51060;42.640;24.356;2023-05-07T10:43:00;9.65;;;7.82;;
32824;SDS011;51060;42.640;24.356;2023-05-07T10:45:28;14.02;;;9.18;;
32824;SDS011;51060;42.640;24.356;2023-05-07T10:48:13;13.57;;;8.68;;
32824;SDS011;51060;42.640;24.356;2023-05-07T10:50:42;8.35;;;7.47;;
32824;SDS011;51060;42.640;24.356;2023-05-07T10:55:49;9.10;;;7.03;;
32824;SDS011;51060;42.640;24.356;2023-05-07T10:58:33;7.75;;;6.95;;
32824;SDS011;51060;42.640;24.356;2023-05-07T11:01:02;8.23;;;7.40;;
32824;SDS011;51060;42.640;24.356;2023-05-07T11:03:28;9.43;;;7.10;;
32824;SDS011;51060;42.640;24.356;2023-05-07T11:06:13;13.05;;;8.73;;
32824;SDS011;51060;42.640;24.356;2023-05-07T11:11:18;7.32;;;6.25;;
32824;SDS011;51060;42.640;24.356;2023-05-07T11:13:47;6.97;;;6.30;;
32824;SDS011;51060;42.640;24.356;2023-05-07T11:16:21;8.65;;;7.70;;
32824;SDS011;51060;42.640;24.356;2023-05-07T11:18:51;8.23;;;6.65;;
32824;SDS011;51060;42.640;24.356;2023-05-07T11:21:37;8.02;;;7.13;;
32824;SDS011;51060;42.640;24.356;2023-05-07T11:24:04;10.05;;;8.30;;
32824;SDS011;51060;42.640;24.356;2023-05-07T11:26:32;6.97;;;6.38;;
32824;SDS011;51060;42.640;24.356;2023-05-07T11:29:22;8.57;;;7.78;;
32824;SDS011;51060;42.640;24.356;2023-05-07T11:31:51;7.95;;;7.13;;
32824;SDS011;51060;42.640;24.356;2023-05-07T11:34:24;8.18;;;5.97;;
32824;SDS011;51060;42.640;24.356;2023-05-07T11:36:51;6.70;;;6.10;;
32824;SDS011;51060;42.640;24.356;2023-05-07T11:39:24;8.13;;;6.70;;
32824;SDS011;51060;42.640;24.356;2023-05-07T11:41:50;5.53;;;5.03;;
32824;SDS011;51060;42.640;24.356;2023-05-07T11:44:15;9.45;;;6.25;;
32824;SDS011;51060;42.640;24.356;2023-05-07T11:46:42;8.00;;;5.75;;
32824;SDS011;51060;42.640;24.356;2023-05-07T11:49:09;8.20;;;7.40;;
32824;SDS011;51060;42.640;24.356;2023-05-07T11:51:35;9.90;;;8.27;;
32824;SDS011;51060;42.640;24.356;2023-05-07T11:54:03;7.97;;;7.25;;
32824;SDS011;51060;42.640;24.356;2023-05-07T11:56:29;8.25;;;7.45;;
32824;SDS011;51060;42.640;24.356;2023-05-07T11:58:55;9.02;;;6.47;;
32824;SDS011;51060;42.640;24.356;2023-05-07T12:01:20;7.47;;;6.60;;
32824;SDS011;51060;42.640;24.356;2023-05-07T12:03:46;7.25;;;5.50;;
32824;SDS011;51060;42.640;24.356;2023-05-07T12:06:12;6.70;;;6.10;;
32824;SDS011;51060;42.640;24.356;2023-05-07T12:08:40;6.60;;;5.88;;
32824;SDS011;51060;42.640;24.356;2023-05-07T12:11:10;7.82;;;7.00;;
32824;SDS011;51060;42.640;24.356;2023-05-07T12:13:39;10.82;;;8.38;;
32824;SDS011;51060;42.640;24.356;2023-05-07T12:16:06;11.35;;;9.15;;
32824;SDS011;51060;42.640;24.356;2023-05-07T12:18:33;9.23;;;8.30;;
32824;SDS011;51060;42.640;24.356;2023-05-07T12:20:59;10.68;;;9.30;;
32824;SDS011;51060;42.640;24.356;2023-05-07T12:23:25;15.68;;;14.07;;
32824;SDS011;51060;42.640;24.356;2023-05-07T12:25:51;13.73;;;11.45;;
32824;SDS011;51060;42.640;24.356;2023-05-07T12:28:17;13.02;;;10.60;;
32824;SDS011;51060;42.640;24.356;2023-05-07T12:30:45;8.48;;;6.63;;
32824;SDS011;51060;42.640;24.356;2023-05-07T12:33:11;7.53;;;6.53;;
32824;SDS011;51060;42.640;24.356;2023-05-07T12:35:42;8.40;;;6.90;;
32824;SDS011;51060;42.640;24.356;2023-05-07T12:38:09;8.65;;;5.68;;
32824;SDS011;51060;42.640;24.356;2023-05-07T12:40:36;9.57;;;8.57;;
32824;SDS011;51060;42.640;24.356;2023-05-07T12:43:06;8.82;;;7.93;;
32824;SDS011;51060;42.640;24.356;2023-05-07T12:45:38;8.60;;;7.57;;
32824;SDS011;51060;42.640;24.356;2023-05-07T12:48:04;7.40;;;6.72;;
32824;SDS011;51060;42.640;24.356;2023-05-07T12:50:33;7.45;;;6.72;;
32824;SDS011;51060;42.640;24.356;2023-05-07T12:52:59;8.23;;;6.57;;
32824;SDS011;51060;42.640;24.356;2023-05-07T12:55:25;7.72;;;6.40;;
32824;SDS011;51060;42.640;24.356;2023-05-07T12:57:51;8.13;;;5.68;;
32824;SDS011;51060;42.640;24.356;2023-05-07T13:00:18;8.13;;;5.90;;
32824;SDS011;51060;42.640;24.356;2023-05-07T13:03:01;7.40;;;6.03;;
32824;SDS011;51060;42.640;24.356;2023-05-07T13:05:27;7.00;;;6.30;;
32824;SDS011;51060;42.640;24.356;2023-05-07T13:07:55;12.27;;;6.38;;
32824;SDS011;51060;42.640;24.356;2023-05-07T13:10:22;7.18;;;6.45;;
32824;SDS011;51060;42.640;24.356;2023-05-07T13:12:48;6.55;;;5.95;;
32824;SDS011;51060;42.640;24.356;2023-05-07T13:15:14;7.10;;;5.93;;
32824;SDS011;51060;42.640;24.356;2023-05-07T13:17:40;8.93;;;5.88;;
32824;SDS011;51060;42.640;24.356;2023-05-07T13:20:06;6.55;;;5.93;;
32824;SDS011;51060;42.640;24.356;2023-05-07T13:22:33;5.80;;;5.22;;
32824;SDS011;51060;42.640;24.356;2023-05-07T13:24:59;10.45;;;7.43;;
32824;SDS011;51060;42.640;24.356;2023-05-07T13:27:24;10.80;;;6.75;;
32824;SDS011;51060;42.640;24.356;2023-05-07T13:29:51;8.20;;;6.00;;
32824;SDS011;51060;42.640;24.356;2023-05-07T13:32:17;6.68;;;5.65;;
32824;SDS011;51060;42.640;24.356;2023-05-07T13:34:42;7.70;;;5.88;;
32824;SDS011;51060;42.640;24.356;2023-05-07T13:37:08;8.30;;;6.28;;
32824;SDS011;51060;42.640;24.356;2023-05-07T13:39:34;7.65;;;6.95;;
32824;SDS011;51060;42.640;24.356;2023-05-07T13:41:59;7.72;;;5.90;;
32824;SDS011;51060;42.640;24.356;2023-05-07T13:44:26;6.15;;;5.32;;
32824;SDS011;51060;42.640;24.356;2023-05-07T13:46:51;11.45;;;9.05;;
32824;SDS011;51060;42.640;24.356;2023-05-07T13:49:17;11.55;;;8.70;;
32824;SDS011;51060;42.640;24.356;2023-05-07T13:51:43;10.88;;;9.73;;
32824;SDS011;51060;42.640;24.356;2023-05-07T13:54:08;9.57;;;8.57;;
32824;SDS011;51060;42.640;24.356;2023-05-07T13:56:34;7.75;;;6.68;;
32824;SDS011;51060;42.640;24.356;2023-05-07T13:59:00;7.43;;;6.65;;
32824;SDS011;51060;42.640;24.356;2023-05-07T14:01:26;8.00;;;6.70;;
32824;SDS011;51060;42.640;24.356;2023-05-07T14:03:52;9.77;;;6.13;;
32824;SDS011;51060;42.640;24.356;2023-05-07T14:06:17;10.85;;;7.10;;
32824;SDS011;51060;42.640;24.356;2023-05-07T14:08:43;11.20;;;8.13;;
32824;SDS011;51060;42.640;24.356;2023-05-07T14:11:09;42.90;;;29.92;;
32824;SDS011;51060;42.640;24.356;2023-05-07T14:13:34;37.25;;;26.05;;
32824;SDS011;51060;42.640;24.356;2023-05-07T14:16:00;18.98;;;14.48;;
32824;SDS011;51060;42.640;24.356;2023-05-07T14:18:26;8.65;;;5.90;;
32824;SDS011;51060;42.640;24.356;2023-05-07T14:20:53;6.55;;;5.63;;
32824;SDS011;51060;42.640;24.356;2023-05-07T14:23:19;6.53;;;5.10;;
32824;SDS011;51060;42.640;24.356;2023-05-07T14:25:47;7.40;;;6.20;;